createdAt,value
2019-05-14T00:00:27.942Z,96742
2019-05-14T00:02:35.327Z,96737.6
2019-05-14T00:03:37.691Z,96740.1
2019-05-14T00:04:41.997Z,96736.8
2019-05-14T00:05:45.746Z,96735.8
2019-05-14T00:06:47.360Z,96735.9
2019-05-14T00:08:55.449Z,96737.2
2019-05-14T00:09:57.888Z,96736.9
2019-05-14T00:12:05.314Z,96734.5
2019-05-14T00:13:07.180Z,96733.4
2019-05-14T00:15:15.296Z,96735.2
2019-05-14T00:16:17.451Z,96732.9
2019-05-14T00:18:25.564Z,96732.2
2019-05-14T00:19:27.997Z,96732.4
2019-05-14T00:21:35.414Z,96724.7
2019-05-14T00:22:37.588Z,96724.3
2019-05-14T00:23:41.966Z,96721.5
2019-05-14T00:24:44.315Z,96724.2
2019-05-14T00:25:46.469Z,96722.3
2019-05-14T00:26:48.591Z,96721.4
2019-05-14T00:27:55.231Z,96719.1
2019-05-14T00:28:57.402Z,96718.4
2019-05-14T00:30:02.248Z,96716.9
2019-05-14T00:31:06.259Z,96715.2
2019-05-14T00:32:11.081Z,96718.7
2019-05-14T00:33:13.547Z,96719.9
2019-05-14T00:34:15.709Z,96713.5
2019-05-14T00:35:17.855Z,96716.6
2019-05-14T00:37:25.466Z,96708.5
2019-05-14T00:38:27.907Z,96711.8
2019-05-14T00:39:31.807Z,96712.6
2019-05-14T00:40:34.413Z,96713.3
2019-05-14T00:41:36.838Z,96711.7
2019-05-14T00:43:45.207Z,96708.8
2019-05-14T00:45:52.725Z,96704.3
2019-05-14T00:46:55.221Z,96701.2
2019-05-14T00:47:57.385Z,96702.6
2019-05-14T00:48:59.281Z,96702.1
2019-05-14T00:50:03.750Z,96697.8
2019-05-14T00:51:05.882Z,96699.2
2019-05-14T00:52:08.026Z,96695.7
2019-05-14T00:54:15.910Z,96697.1
2019-05-14T00:55:18.054Z,96701.3
2019-05-14T00:57:25.686Z,96699.9
2019-05-14T00:58:27.844Z,96699.1
2019-05-14T00:59:31.981Z,96695.2
2019-05-14T01:00:34.569Z,96693.5
2019-05-14T01:01:36.997Z,96693.8
2019-05-14T01:02:41.306Z,96694.7
2019-05-14T01:03:45.282Z,96698.9
2019-05-14T01:04:47.435Z,96697.1
2019-05-14T01:05:51.916Z,96695.9
2019-05-14T01:06:55.741Z,96701.5
2019-05-14T01:07:58.184Z,96698.7
2019-05-14T01:10:05.585Z,96697.3
2019-05-14T01:11:07.758Z,96698.6
2019-05-14T01:13:16.133Z,96699.6
2019-05-14T01:14:18.547Z,96700.1
2019-05-14T01:15:23.288Z,96700
2019-05-14T01:16:25.736Z,96696.8
2019-05-14T01:17:28.160Z,96699.2
2019-05-14T01:19:35.768Z,96695.8
2019-05-14T01:20:37.656Z,96697.9
2019-05-14T01:22:45.763Z,96700.2
2019-05-14T01:23:48.394Z,96698.4
2019-05-14T01:24:55.288Z,96694.9
2019-05-14T01:25:57.458Z,96697.1
2019-05-14T01:27:02.056Z,96694.9
2019-05-14T01:28:04.212Z,96693.1
2019-05-14T01:29:06.388Z,96691.1
2019-05-14T01:30:08.814Z,96689.5
2019-05-14T01:32:18.358Z,96686.3
2019-05-14T01:33:22.757Z,96685.5
2019-05-14T01:34:25.174Z,96683.4
2019-05-14T01:35:26.801Z,96685.5
2019-05-14T01:36:29.255Z,96684.9
2019-05-14T01:37:33.947Z,96681.8
2019-05-14T01:38:36.388Z,96682.2
2019-05-14T01:39:38.551Z,96676.1
2019-05-14T01:40:45.454Z,96676.4
2019-05-14T01:41:48.234Z,96674.9
2019-05-14T01:43:55.642Z,96670.2
2019-05-14T01:44:57.804Z,96669.2
2019-05-14T01:47:05.407Z,96670.9
2019-05-14T01:48:07.558Z,96669
2019-05-14T01:50:15.660Z,96664.3
2019-05-14T01:51:18.095Z,96670.5
2019-05-14T01:52:22.406Z,96667
2019-05-14T01:53:24.850Z,96661.3
2019-05-14T01:54:27.293Z,96662.5
2019-05-14T01:55:29.727Z,96662.8
2019-05-14T01:56:33.876Z,96662.8
2019-05-14T01:57:36.037Z,96657.6
2019-05-14T01:58:39.076Z,96657.5
2019-05-14T01:59:44.485Z,96659.4
2019-05-14T02:00:46.910Z,96654.8
2019-05-14T02:01:51.498Z,96655.8
2019-05-14T02:02:55.767Z,96653.2
2019-05-14T02:03:58.195Z,96650.6
2019-05-14T02:06:05.602Z,96652.4
2019-05-14T02:07:07.761Z,96651.5
2019-05-14T02:08:12.580Z,96650.7
2019-05-14T02:09:14.486Z,96648.3
2019-05-14T02:10:16.647Z,96652.5
2019-05-14T02:11:18.533Z,96651.7
2019-05-14T02:12:25.164Z,96652.7
2019-05-14T02:13:27.058Z,96650.1
2019-05-14T02:16:43.133Z,96651.2
2019-05-14T02:17:45.306Z,96645.6
2019-05-14T02:18:47.472Z,96648.3
2019-05-14T02:19:51.272Z,96647
2019-05-14T02:20:53.325Z,96645
2019-05-14T02:21:55.751Z,96646.3
2019-05-14T02:22:58.420Z,96641.8
2019-05-14T02:24:05.316Z,96642.3
2019-05-14T02:25:07.192Z,96636.9
2019-05-14T02:27:15.304Z,96634.2
2019-05-14T02:28:16.911Z,96633.5
2019-05-14T02:29:21.277Z,96632.2
2019-05-14T02:31:30.830Z,96632.5
2019-05-14T02:32:33.256Z,96633.9
2019-05-14T02:33:35.408Z,96636.3
2019-05-14T02:35:42.555Z,96640.2
2019-05-14T02:37:52.035Z,96632.4
2019-05-14T02:38:54.476Z,96634.5
2019-05-14T02:41:02.131Z,96634.5
2019-05-14T02:42:04.576Z,96633.9
2019-05-14T02:44:12.201Z,96625.9
2019-05-14T02:45:14.632Z,96627.3
2019-05-14T02:47:21.770Z,96628
2019-05-14T02:48:23.936Z,96623.5
2019-05-14T02:49:26.359Z,96624.6
2019-05-14T02:50:32.984Z,96622.3
2019-05-14T02:51:35.425Z,96626
2019-05-14T02:52:42.952Z,96623.4
2019-05-14T02:53:45.389Z,96618.8
2019-05-14T02:55:52.506Z,96618.1
2019-05-14T02:56:54.938Z,96623.2
2019-05-14T03:01:12.803Z,96615.6
2019-05-14T03:02:15.227Z,96616.9
2019-05-14T03:03:22.132Z,96610
2019-05-14T03:04:24.296Z,96612.4
2019-05-14T03:06:32.676Z,96617.4
2019-05-14T03:07:34.855Z,96615.3
2019-05-14T03:09:42.889Z,96608.2
2019-05-14T03:10:45.332Z,96610.1
2019-05-14T03:12:52.764Z,96604.5
2019-05-14T03:13:55.197Z,96605.7
2019-05-14T03:18:12.537Z,96602.4
2019-05-14T03:19:14.968Z,96597.8
2019-05-14T03:21:22.874Z,96601.2
2019-05-14T03:23:31.855Z,96598.4
2019-05-14T03:24:33.726Z,96590.5
2019-05-14T03:25:39.760Z,96600.2
2019-05-14T03:26:43.085Z,96598.3
2019-05-14T03:27:45.233Z,96599
2019-05-14T03:28:52.134Z,96599
2019-05-14T03:29:54.563Z,96601.9
2019-05-14T03:38:32.681Z,96601.3
2019-05-14T03:39:35.143Z,96602.2
2019-05-14T03:41:43.022Z,96600.5
2019-05-14T03:42:45.453Z,96602.7
2019-05-14T03:43:52.544Z,96603.9
2019-05-14T03:44:54.954Z,96603.7
2019-05-14T03:49:12.849Z,96599.1
2019-05-14T03:50:14.733Z,96597.6
2019-05-14T03:51:20.067Z,96597.7
2019-05-14T03:52:23.044Z,96597.6
2019-05-14T03:53:29.280Z,96594.3
2019-05-14T03:54:31.929Z,96596
2019-05-14T03:55:34.077Z,96600
2019-05-14T03:58:11.496Z,96598.4
2019-05-14T03:59:13.973Z,96592.1
2019-05-14T04:01:21.900Z,96595.2
2019-05-14T04:02:24.331Z,96596
2019-05-14T04:04:32.229Z,96596.2
2019-05-14T04:05:34.711Z,96593.9
2019-05-14T04:07:42.830Z,96591
2019-05-14T04:08:45.869Z,96590.4
2019-05-14T04:09:52.503Z,96591.5
2019-05-14T04:12:02.186Z,96595
2019-05-14T04:13:05.013Z,96592.9
2019-05-14T04:14:11.921Z,96597.1
2019-05-14T04:15:14.355Z,96591.7
2019-05-14T04:19:32.713Z,96587
2019-05-14T04:20:34.890Z,96588.1
2019-05-14T04:21:39.713Z,96590.8
2019-05-14T04:22:42.627Z,96585.4
2019-05-14T04:23:44.805Z,96587.6
2019-05-14T04:25:51.657Z,96589.3
2019-05-14T04:28:01.270Z,96587
2019-05-14T04:29:03.411Z,96590
2019-05-14T04:30:09.165Z,96586.3
2019-05-14T04:31:12.273Z,96586.6
2019-05-14T04:32:14.916Z,96589.1
2019-05-14T04:34:22.453Z,96589.4
2019-05-14T04:35:24.590Z,96590.4
2019-05-14T04:37:32.896Z,96593
2019-05-14T04:38:35.943Z,96593.7
2019-05-14T04:39:42.839Z,96585.6
2019-05-14T04:40:44.738Z,96589.2
2019-05-14T04:42:52.102Z,96587.1
2019-05-14T04:43:54.727Z,96590.7
2019-05-14T04:46:02.057Z,96592.4
2019-05-14T04:49:13.938Z,96584.7
2019-05-14T04:50:16.094Z,96591.9
2019-05-14T04:52:22.957Z,96590.1
2019-05-14T04:53:25.392Z,96588.5
2019-05-14T04:55:33.425Z,96595.7
2019-05-14T04:57:42.394Z,96592.1
2019-05-14T04:58:44.818Z,96588.4
2019-05-14T05:00:52.245Z,96591.1
2019-05-14T05:01:54.419Z,96586.4
2019-05-14T05:04:01.970Z,96585.6
2019-05-14T05:05:05.062Z,96583.4
2019-05-14T05:06:11.964Z,96582.4
2019-05-14T05:07:15.023Z,96583.1
2019-05-14T05:09:22.635Z,96583.2
2019-05-14T05:10:24.516Z,96580.6
2019-05-14T05:12:32.140Z,96581.9
2019-05-14T05:13:34.582Z,96582.4
2019-05-14T05:15:41.720Z,96578.8
2019-05-14T05:16:43.875Z,96578.7
2019-05-14T05:18:51.271Z,96581.9
2019-05-14T05:19:53.456Z,96575
2019-05-14T05:20:55.613Z,96577
2019-05-14T05:22:02.228Z,96581.9
2019-05-14T05:23:04.387Z,96582.3
2019-05-14T05:24:08.897Z,96581.6
2019-05-14T05:25:12.938Z,96585
2019-05-14T05:26:15.571Z,96584.3
2019-05-14T05:27:22.204Z,96583.1
2019-05-14T05:28:24.362Z,96583.7
2019-05-14T05:29:29.073Z,96578.8
2019-05-14T05:30:31.227Z,96578.8
2019-05-14T05:31:33.124Z,96580.1
2019-05-14T05:32:35.281Z,96579.9
2019-05-14T05:33:39.862Z,96580.1
2019-05-14T05:34:42.298Z,96577.2
2019-05-14T05:35:45.078Z,96578.8
2019-05-14T05:37:52.496Z,96578.8
2019-05-14T05:38:54.924Z,96576.8
2019-05-14T05:39:59.334Z,96577.8
2019-05-14T05:41:01.968Z,96576.6
2019-05-14T05:42:04.149Z,96580.9
2019-05-14T05:44:12.540Z,96579.6
2019-05-14T05:45:14.717Z,96579.6
2019-05-14T05:47:23.127Z,96577.4
2019-05-14T05:48:25.287Z,96577.4
2019-05-14T05:49:32.198Z,96578.5
2019-05-14T05:50:34.648Z,96581.5
2019-05-14T05:51:39.040Z,96582.2
2019-05-14T05:52:43.273Z,96580.4
2019-05-14T05:53:45.186Z,96576.7
2019-05-14T05:54:52.132Z,96580.7
2019-05-14T05:55:54.562Z,96579.2
2019-05-14T05:57:00.307Z,96575.7
2019-05-14T05:58:02.603Z,96577.3
2019-05-14T05:59:04.655Z,96573
2019-05-14T06:01:13.310Z,96578.2
2019-05-14T06:03:22.661Z,96572.9
2019-05-14T06:04:25.711Z,96579.2
2019-05-14T06:05:32.628Z,96577.4
2019-05-14T06:06:34.767Z,96578.8
2019-05-14T06:08:43.143Z,96575.9
2019-05-14T06:09:45.565Z,96570.4
2019-05-14T06:10:50.544Z,96570.6
2019-05-14T06:11:52.985Z,96572.2
2019-05-14T06:12:54.856Z,96572.2
2019-05-14T06:15:02.659Z,96571.8
2019-05-14T06:16:04.826Z,96567.8
2019-05-14T06:19:19.178Z,96569.6
2019-05-14T06:20:21.950Z,96566.2
2019-05-14T06:21:24.376Z,96567.9
2019-05-14T06:22:28.992Z,96567.7
2019-05-14T06:23:31.142Z,96562.8
2019-05-14T06:24:33.766Z,96564.4
2019-05-14T06:25:36.250Z,96561.4
2019-05-14T06:26:43.139Z,96563.2
2019-05-14T06:27:45.759Z,96557.7
2019-05-14T06:28:51.297Z,96559.6
2019-05-14T06:29:58.112Z,96564
2019-05-14T06:31:02.117Z,96563.1
2019-05-14T06:32:04.542Z,96559.3
2019-05-14T06:34:12.657Z,96557.9
2019-05-14T06:35:15.079Z,96555
2019-05-14T06:37:22.673Z,96556.9
2019-05-14T06:38:24.567Z,96552.9
2019-05-14T06:40:31.995Z,96557.3
2019-05-14T06:41:34.415Z,96559.8
2019-05-14T06:42:36.050Z,96560.1
2019-05-14T06:43:42.953Z,96558.2
2019-05-14T06:44:45.566Z,96560.6
2019-05-14T06:46:54.510Z,96562.1
2019-05-14T06:47:59.168Z,96558.7
2019-05-14T06:49:01.403Z,96558.7
2019-05-14T06:50:03.284Z,96555
2019-05-14T06:51:05.706Z,96554.8
2019-05-14T06:52:12.339Z,96554.9
2019-05-14T06:53:14.743Z,96555.3
2019-05-14T06:55:22.359Z,96556.5
2019-05-14T06:56:24.967Z,96555
2019-05-14T06:58:32.592Z,96548.7
2019-05-14T06:59:34.756Z,96546.8
2019-05-14T07:01:42.573Z,96544.5
2019-05-14T07:02:45.789Z,96544.2
2019-05-14T07:03:52.436Z,96540.5
2019-05-14T07:04:54.588Z,96537.4
2019-05-14T07:05:59.333Z,96540.2
2019-05-14T07:07:03.435Z,96533
2019-05-14T07:08:08.731Z,96528.5
2019-05-14T07:09:12.038Z,96534.4
2019-05-14T07:10:14.195Z,96535.6
2019-05-14T07:12:22.345Z,96530.1
2019-05-14T07:13:24.503Z,96528.7
2019-05-14T07:15:32.127Z,96530.8
2019-05-14T07:16:34.561Z,96527.7
2019-05-14T07:20:52.905Z,96531.6
2019-05-14T07:21:58.079Z,96525.1
2019-05-14T07:23:02.105Z,96527.7
2019-05-14T07:24:04.849Z,96527.7
2019-05-14T07:26:12.659Z,96523.7
2019-05-14T07:27:15.273Z,96522.1
2019-05-14T07:29:23.569Z,96522.9
2019-05-14T07:31:32.261Z,96522.4
2019-05-14T07:32:34.433Z,96522.6
2019-05-14T07:34:42.315Z,96520
2019-05-14T07:35:44.368Z,96518.1
2019-05-14T07:37:52.737Z,96516
2019-05-14T07:40:00.427Z,96506.1
2019-05-14T07:41:02.876Z,96511.2
2019-05-14T07:42:05.318Z,96510.7
2019-05-14T07:44:12.724Z,96510
2019-05-14T07:45:15.136Z,96506.6
2019-05-14T07:47:23.031Z,96505.6
2019-05-14T07:48:25.183Z,96510.5
2019-05-14T07:50:33.015Z,96508.4
2019-05-14T07:51:34.895Z,96503.7
2019-05-14T07:53:43.504Z,96507.6
2019-05-14T07:54:48.002Z,96499.7
2019-05-14T07:55:50.909Z,96502.4
2019-05-14T07:56:54.291Z,96504.6
2019-05-14T07:59:03.827Z,96505.5
2019-05-14T08:01:12.205Z,96507.7
2019-05-14T08:02:14.366Z,96499.6
2019-05-14T08:03:18.849Z,96506.2
2019-05-14T08:04:23.134Z,96498.8
2019-05-14T08:05:25.588Z,96499.1
2019-05-14T08:06:29.662Z,96498.7
2019-05-14T08:07:32.102Z,96495.4
2019-05-14T08:08:34.527Z,96496.5
2019-05-14T08:10:42.593Z,96494.3
2019-05-14T08:11:45.349Z,96491.2
2019-05-14T08:12:49.835Z,96490
2019-05-14T08:13:52.004Z,96485.9
2019-05-14T08:15:59.936Z,96482.9
2019-05-14T08:17:02.702Z,96483.6
2019-05-14T08:18:05.127Z,96482.9
2019-05-14T08:20:19.219Z,96485.1
2019-05-14T08:21:21.655Z,96487.3
2019-05-14T08:22:24.086Z,96486.3
2019-05-14T08:24:32.174Z,96479.5
2019-05-14T08:25:34.343Z,96487.1
2019-05-14T08:27:42.237Z,96483.1
2019-05-14T08:28:44.661Z,96477.3
2019-05-14T08:30:52.557Z,96476.4
2019-05-14T08:31:54.994Z,96479.8
2019-05-14T08:33:01.615Z,96481.6
2019-05-14T08:35:10.294Z,96478.1
2019-05-14T08:36:12.467Z,96471.9
2019-05-14T08:37:15.107Z,96471.6
2019-05-14T08:39:22.507Z,96470.1
2019-05-14T08:40:24.393Z,96471.9
2019-05-14T08:44:42.936Z,96469.7
2019-05-14T08:46:51.985Z,96468.5
2019-05-14T08:47:54.351Z,96469
2019-05-14T08:50:02.233Z,96464.5
2019-05-14T08:51:04.404Z,96467.5
2019-05-14T08:53:12.300Z,96469.9
2019-05-14T08:54:14.738Z,96466.6
2019-05-14T08:56:21.878Z,96469
2019-05-14T08:57:24.800Z,96467.8
2019-05-14T08:59:33.333Z,96469.1
2019-05-14T09:00:35.497Z,96467.3
2019-05-14T09:02:42.895Z,96465.2
2019-05-14T09:03:45.323Z,96470.7
2019-05-14T09:05:52.761Z,96467.4
2019-05-14T09:06:55.188Z,96472
2019-05-14T09:08:02.092Z,96474
2019-05-14T09:09:04.838Z,96472.8
2019-05-14T09:11:12.444Z,96472.8
2019-05-14T09:12:14.876Z,96475.3
2019-05-14T09:14:22.024Z,96475.8
2019-05-14T09:15:23.903Z,96475.1
2019-05-14T09:17:31.341Z,96487.6
2019-05-14T09:18:33.774Z,96480.8
2019-05-14T09:19:36.226Z,96479.3
2019-05-14T09:20:43.126Z,96484.4
2019-05-14T09:21:45.558Z,96481.1
2019-05-14T09:23:53.175Z,96481
2019-05-14T09:24:55.629Z,96481.9
2019-05-14T09:28:10.569Z,96476.6
2019-05-14T09:31:22.629Z,96478.8
2019-05-14T09:32:25.064Z,96473.2
2019-05-14T09:34:32.880Z,96474.3
2019-05-14T09:35:35.044Z,96472.7
2019-05-14T09:37:43.096Z,96473.5
2019-05-14T09:38:45.605Z,96474.2
2019-05-14T09:39:50.214Z,96465.9
2019-05-14T09:41:59.075Z,96464.9
2019-05-14T09:43:01.229Z,96462
2019-05-14T09:44:03.382Z,96466.3
2019-05-14T09:45:10.493Z,96465.3
2019-05-14T09:46:12.259Z,96469
2019-05-14T09:47:14.415Z,96463.9
2019-05-14T09:48:18.985Z,96462.7
2019-05-14T09:49:21.415Z,96464.9
2019-05-14T09:50:24.859Z,96462.8
2019-05-14T09:51:29.525Z,96464
2019-05-14T09:52:31.965Z,96462.9
2019-05-14T09:54:03.427Z,96467.6
2019-05-14T09:55:05.865Z,96462.2
2019-05-14T09:56:12.788Z,96463.1
2019-05-14T09:57:14.673Z,96460.3
2019-05-14T09:59:22.931Z,96462.1
2019-05-14T10:00:25.086Z,96458.8
2019-05-14T10:01:27.531Z,96451.4
2019-05-14T10:02:29.982Z,96455.6
2019-05-14T10:03:32.130Z,96454.4
2019-05-14T10:04:34.311Z,96457.5
2019-05-14T10:05:36.466Z,96455.4
2019-05-14T10:06:40.733Z,96457.4
2019-05-14T10:07:43.090Z,96454.9
2019-05-14T10:08:45.525Z,96449.2
2019-05-14T10:09:52.175Z,96448.6
2019-05-14T10:10:54.310Z,96449.9
2019-05-14T10:11:58.915Z,96448.2
2019-05-14T10:13:03.779Z,96443.2
2019-05-14T10:14:08.405Z,96443.7
2019-05-14T10:15:10.587Z,96438.8
2019-05-14T10:16:13.024Z,96437.2
2019-05-14T10:17:19.126Z,96436
2019-05-14T10:18:21.892Z,96442.2
2019-05-14T10:19:24.337Z,96440.3
2019-05-14T10:21:31.781Z,96430.4
2019-05-14T10:22:33.955Z,96431.3
2019-05-14T10:23:38.687Z,96431.6
2019-05-14T10:24:42.527Z,96430.2
2019-05-14T10:25:44.952Z,96428.2
2019-05-14T10:27:52.380Z,96423.7
2019-05-14T10:28:54.809Z,96428.8
2019-05-14T10:29:59.494Z,96427.4
2019-05-14T10:35:22.805Z,96415.6
2019-05-14T10:36:25.550Z,96419.3
2019-05-14T10:38:32.984Z,96417.3
2019-05-14T10:39:35.409Z,96415.4
2019-05-14T10:40:42.032Z,96418.5
2019-05-14T10:41:44.476Z,96419.2
2019-05-14T10:43:52.376Z,96420.2
2019-05-14T10:44:54.546Z,96420
2019-05-14T10:47:02.185Z,96419.8
2019-05-14T10:48:04.059Z,96421.8
2019-05-14T10:52:21.987Z,96402.9
2019-05-14T10:53:24.413Z,96410.4
2019-05-14T10:55:31.830Z,96396.1
2019-05-14T10:56:34.254Z,96399.9
2019-05-14T10:57:36.118Z,96401.1
2019-05-14T10:58:38.559Z,96400.2
2019-05-14T10:59:41.054Z,96398.6
2019-05-14T11:00:43.625Z,96399
2019-05-14T11:01:45.784Z,96405
2019-05-14T11:03:53.191Z,96401.5
2019-05-14T11:04:55.634Z,96396.4
2019-05-14T11:06:02.535Z,96401.1
2019-05-14T11:07:04.435Z,96395.1
2019-05-14T11:09:13.567Z,96392.7
2019-05-14T11:10:15.714Z,96396.8
2019-05-14T11:11:22.334Z,96393.7
2019-05-14T11:12:24.766Z,96390.2
2019-05-14T11:14:33.375Z,96397.5
2019-05-14T11:15:35.814Z,96396.4
2019-05-14T11:16:43.516Z,96399.7
2019-05-14T11:17:48.464Z,96400.4
2019-05-14T11:18:52.102Z,96397.5
2019-05-14T11:19:53.985Z,96397.5
2019-05-14T11:22:01.881Z,96394.9
2019-05-14T11:23:04.214Z,96399.2
2019-05-14T11:24:09.189Z,96402.6
2019-05-14T11:25:13.076Z,96394
2019-05-14T11:26:15.207Z,96394.4
2019-05-14T11:27:22.106Z,96396.4
2019-05-14T11:28:24.555Z,96392.9
2019-05-14T11:30:32.635Z,96387.3
2019-05-14T11:31:35.897Z,96392.7
2019-05-14T11:32:42.796Z,96388.3
2019-05-14T11:33:45.275Z,96391.2
2019-05-14T11:34:47.730Z,96387.4
2019-05-14T11:35:50.166Z,96388.3
2019-05-14T11:36:52.594Z,96389.2
2019-05-14T11:37:54.517Z,96382.3
2019-05-14T11:40:02.410Z,96385.4
2019-05-14T11:41:04.604Z,96384.3
2019-05-14T11:43:12.643Z,96377
2019-05-14T11:44:14.839Z,96380.7
2019-05-14T11:45:17.301Z,96385.2
2019-05-14T11:47:24.739Z,96378.4
2019-05-14T11:48:27.155Z,96372
2019-05-14T11:49:29.075Z,96364.8
2019-05-14T11:50:31.502Z,96368.9
2019-05-14T11:52:40.399Z,96365
2019-05-14T11:53:42.566Z,96366
2019-05-14T11:54:44.999Z,96366.1
2019-05-14T11:56:52.675Z,96360.1
2019-05-14T11:57:55.103Z,96355.5
2019-05-14T11:59:01.737Z,96359.9
2019-05-14T12:00:04.164Z,96352.8
2019-05-14T12:01:06.068Z,96349.3
2019-05-14T12:02:12.980Z,96347.4
2019-05-14T12:03:15.447Z,96349.3
2019-05-14T12:04:22.343Z,96347.2
2019-05-14T12:05:24.778Z,96340.6
2019-05-14T12:06:26.943Z,96341.8
2019-05-14T12:07:29.589Z,96334.6
2019-05-14T12:08:32.205Z,96335.2
2019-05-14T12:09:34.631Z,96337.6
2019-05-14T12:11:42.731Z,96333.1
2019-05-14T12:12:44.935Z,96331.7
2019-05-14T12:14:52.343Z,96326.8
2019-05-14T12:15:54.513Z,96332.7
2019-05-14T12:18:02.894Z,96326.4
2019-05-14T12:19:05.338Z,96322.3
2019-05-14T12:20:07.765Z,96324.8
2019-05-14T12:21:10.322Z,96319.4
2019-05-14T12:22:13.830Z,96318.4
2019-05-14T12:23:16.083Z,96313.5
2019-05-14T12:24:22.437Z,96309.9
2019-05-14T12:25:24.865Z,96313
2019-05-14T12:27:32.015Z,96313.2
2019-05-14T12:28:34.181Z,96307.4
2019-05-14T12:29:39.475Z,96304.8
2019-05-14T12:30:43.023Z,96310.3
2019-05-14T12:31:45.477Z,96305.7
2019-05-14T12:32:52.116Z,96303.7
2019-05-14T12:33:54.568Z,96309.1
2019-05-14T12:36:02.942Z,96303.3
2019-05-14T12:37:04.545Z,96302.1
2019-05-14T12:38:07.156Z,96301.9
2019-05-14T12:39:14.059Z,96300.2
2019-05-14T12:40:19.161Z,96299.8
2019-05-14T12:41:22.938Z,96298.2
2019-05-14T12:42:25.368Z,96299.2
2019-05-14T12:43:29.992Z,96298.5
2019-05-14T12:44:32.418Z,96293.5
2019-05-14T12:45:34.851Z,96301.4
2019-05-14T12:46:37.272Z,96302.4
2019-05-14T12:47:39.785Z,96307.2
2019-05-14T12:48:42.212Z,96302.1
2019-05-14T12:49:44.644Z,96304.9
2019-05-14T12:51:52.535Z,96300.6
2019-05-14T12:52:54.414Z,96306.2
2019-05-14T12:55:01.818Z,96305.6
2019-05-14T12:56:03.706Z,96303.5
2019-05-14T12:57:06.134Z,96303.3
2019-05-14T12:58:09.192Z,96305.6
2019-05-14T12:59:11.068Z,96309
2019-05-14T13:00:13.234Z,96301.6
2019-05-14T13:01:15.682Z,96299.1
2019-05-14T13:02:20.014Z,96304.6
2019-05-14T13:03:22.185Z,96301.8
2019-05-14T13:04:24.352Z,96293.3
2019-05-14T13:05:28.894Z,96287.3
2019-05-14T13:06:32.646Z,96287
2019-05-14T13:07:35.076Z,96283
2019-05-14T13:09:42.493Z,96289
2019-05-14T13:10:44.923Z,96290.4
2019-05-14T13:12:52.075Z,96282.9
2019-05-14T13:13:54.490Z,96277.8
2019-05-14T13:17:09.044Z,96273.6
2019-05-14T13:18:13.032Z,96269.9
2019-05-14T13:19:14.909Z,96268.2
2019-05-14T13:21:22.527Z,96265.5
2019-05-14T13:23:30.492Z,96264.9
2019-05-14T13:24:32.918Z,96262.9
2019-05-14T13:25:35.053Z,96268.9
2019-05-14T13:27:42.142Z,96266.4
2019-05-14T13:28:44.584Z,96260.7
2019-05-14T13:30:52.465Z,96258.5
2019-05-14T13:31:54.657Z,96256.8
2019-05-14T13:34:02.746Z,96255.3
2019-05-14T13:35:05.177Z,96250.5
2019-05-14T13:36:11.791Z,96255.2
2019-05-14T13:37:13.970Z,96249.7
2019-05-14T13:38:16.257Z,96253.4
2019-05-14T13:39:21.156Z,96246.1
2019-05-14T13:40:23.355Z,96248.5
2019-05-14T13:41:25.508Z,96248.1
2019-05-14T13:42:31.136Z,96245.4
2019-05-14T13:43:34.201Z,96248.4
2019-05-14T13:45:42.114Z,96251.6
2019-05-14T13:46:44.264Z,96248.2
2019-05-14T13:48:52.142Z,96240.4
2019-05-14T13:49:54.583Z,96242.2
2019-05-14T13:50:56.773Z,96235.8
2019-05-14T13:51:59.233Z,96245.3
2019-05-14T13:55:12.033Z,96244.5
2019-05-14T13:56:14.455Z,96251.2
2019-05-14T13:58:22.656Z,96244.8
2019-05-14T13:59:24.535Z,96242.7
2019-05-14T14:00:27.009Z,96247
2019-05-14T14:01:30.973Z,96240.9
2019-05-14T14:02:33.448Z,96238.4
2019-05-14T14:03:36.032Z,96238.7
2019-05-14T14:04:42.963Z,96243.3
2019-05-14T14:05:45.400Z,96239.4
2019-05-14T14:07:53.036Z,96243.7
2019-05-14T14:08:55.532Z,96237.6
2019-05-14T14:12:09.731Z,96248.2
2019-05-14T14:13:12.913Z,96252.1
2019-05-14T14:14:15.553Z,96247.4
2019-05-14T14:15:17.718Z,96246.8
2019-05-14T14:16:21.342Z,96248
2019-05-14T14:17:23.777Z,96238.7
2019-05-14T14:19:33.571Z,96231.4
2019-05-14T14:20:35.811Z,96229.7
2019-05-14T14:22:43.415Z,96226.5
2019-05-14T14:23:49.081Z,96228.9
2019-05-14T14:24:52.282Z,96220.8
2019-05-14T14:26:00.100Z,96220.4
2019-05-14T14:27:02.261Z,96219.6
2019-05-14T14:28:04.700Z,96216.2
2019-05-14T14:30:12.600Z,96220.9
2019-05-14T14:31:15.031Z,96218.8
2019-05-14T14:33:22.434Z,96218.8
2019-05-14T14:34:24.904Z,96216.3
2019-05-14T14:36:33.041Z,96223.5
2019-05-14T14:37:35.328Z,96221.4
2019-05-14T14:39:43.280Z,96226.1
2019-05-14T14:40:45.718Z,96224.8
2019-05-14T14:41:52.354Z,96224.8
2019-05-14T14:42:54.789Z,96222.7
2019-05-14T14:43:57.248Z,96228.4
2019-05-14T14:44:59.404Z,96220.2
2019-05-14T14:46:05.124Z,96215.2
2019-05-14T14:47:09.581Z,96218.9
2019-05-14T14:48:14.068Z,96218.6
2019-05-14T14:50:22.444Z,96225.3
2019-05-14T14:51:24.882Z,96227.3
2019-05-14T14:55:42.272Z,96241.2
2019-05-14T14:56:44.717Z,96240.1
2019-05-14T14:58:52.050Z,96243.2
2019-05-14T15:01:00.997Z,96248.4
2019-05-14T15:02:03.438Z,96253.3
2019-05-14T15:03:05.879Z,96257.1
2019-05-14T15:06:18.360Z,96224.9
2019-05-14T15:07:20.552Z,96229.9
2019-05-14T15:08:22.975Z,96226.1
2019-05-14T15:09:25.436Z,96221.6
2019-05-14T15:10:29.906Z,96219
2019-05-14T15:11:32.331Z,96219.6
2019-05-14T15:13:40.630Z,96217
2019-05-14T15:14:43.072Z,96221.7
2019-05-14T15:15:45.248Z,96217.8
2019-05-14T15:17:52.657Z,96218.8
2019-05-14T15:18:55.097Z,96224.5
2019-05-14T15:20:02.025Z,96221.5
2019-05-14T15:21:04.208Z,96218.6
2019-05-14T15:23:12.042Z,96213.9
2019-05-14T15:25:20.024Z,96210.9
2019-05-14T15:26:22.463Z,96216.6
2019-05-14T15:27:24.531Z,96209.1
2019-05-14T15:28:26.842Z,96205.4
2019-05-14T15:29:29.895Z,96204.6
2019-05-14T15:30:32.382Z,96211.2
2019-05-14T15:31:34.283Z,96211.4
2019-05-14T15:32:36.721Z,96210.6
2019-05-14T15:33:39.359Z,96212.5
2019-05-14T15:34:41.896Z,96209.2
2019-05-14T15:35:44.335Z,96218.2
2019-05-14T15:37:52.305Z,96211.6
2019-05-14T15:38:54.749Z,96210.7
2019-05-14T15:39:57.165Z,96210.4
2019-05-14T15:41:01.145Z,96205
2019-05-14T15:44:13.545Z,96201.2
2019-05-14T15:45:18.456Z,96195.1
2019-05-14T15:46:20.884Z,96197.6
2019-05-14T15:47:23.316Z,96190.7
2019-05-14T15:48:25.760Z,96194.2
2019-05-14T15:49:30.013Z,96192.8
2019-05-14T15:50:34.351Z,96191.4
2019-05-14T15:51:36.776Z,96184.7
2019-05-14T15:52:43.686Z,96191.4
2019-05-14T15:54:52.264Z,96176.4
2019-05-14T15:55:54.528Z,96178.7
2019-05-14T15:58:02.770Z,96180.3
2019-05-14T15:59:05.393Z,96171
2019-05-14T16:00:12.337Z,96166.3
2019-05-14T16:01:14.190Z,96168.4
2019-05-14T16:02:19.834Z,96178.5
2019-05-14T16:03:22.776Z,96187.8
2019-05-14T16:04:24.931Z,96184.4
2019-05-14T16:06:32.363Z,96185
2019-05-14T16:07:34.723Z,96180.3
2019-05-14T16:09:43.127Z,96180.7
2019-05-14T16:10:45.555Z,96176.6
2019-05-14T16:11:50.558Z,96177.5
2019-05-14T16:12:52.979Z,96176.9
2019-05-14T16:13:55.396Z,96183.1
2019-05-14T16:14:58.422Z,96186.3
2019-05-14T16:16:00.328Z,96183.4
2019-05-14T16:17:02.927Z,96179.3
2019-05-14T16:19:10.544Z,96172.3
2019-05-14T16:20:12.975Z,96167.6
2019-05-14T16:21:15.127Z,96171.6
2019-05-14T16:22:23.987Z,96174.1
2019-05-14T16:24:31.426Z,96189.8
2019-05-14T16:25:33.864Z,96188
2019-05-14T16:26:36.294Z,96182.8
2019-05-14T16:28:43.442Z,96191.5
2019-05-14T16:29:47.841Z,96198.2
2019-05-14T16:30:51.476Z,96204.1
2019-05-14T16:31:54.527Z,96198.9
2019-05-14T16:32:56.956Z,96199.9
2019-05-14T16:34:03.897Z,96200.1
2019-05-14T16:36:12.536Z,96206.9
2019-05-14T16:37:18.087Z,96204.6
2019-05-14T16:39:30.008Z,96200.8
2019-05-14T16:40:32.185Z,96205.4
2019-05-14T16:41:34.604Z,96203.5
2019-05-14T16:43:42.839Z,96195
2019-05-14T16:44:45.296Z,96199